createdAt,value
2023-05-18T00:00:10.675Z,69.20
2023-05-18T00:01:10.649Z,69.20
2023-05-18T00:02:10.680Z,69.20
2023-05-18T00:03:10.710Z,69.10
2023-05-18T00:04:10.662Z,69.30
2023-05-18T00:05:10.617Z,69.71
2023-05-18T00:06:10.611Z,69.40
2023-05-18T00:07:10.585Z,69.30
2023-05-18T00:08:10.596Z,69.20
2023-05-18T00:09:10.633Z,69.81
2023-05-18T00:10:10.603Z,69.71
2023-05-18T00:11:10.568Z,69.81
2023-05-18T00:12:10.572Z,70.02
2023-05-18T00:13:10.513Z,69.81
2023-05-18T00:14:10.551Z,70.05
2023-05-18T00:15:10.509Z,70.64
2023-05-18T00:16:10.545Z,70.36
2023-05-18T00:17:10.486Z,70.43
2023-05-18T00:18:10.532Z,70.36
2023-05-18T00:19:10.451Z,70.67
2023-05-18T00:20:10.504Z,70.46
2023-05-18T00:21:10.438Z,70.15
2023-05-18T00:22:10.431Z,70.56
2023-05-18T00:23:10.415Z,70.46
2023-05-18T00:24:10.393Z,70.87
2023-05-18T00:25:10.399Z,70.67
2023-05-18T00:26:10.382Z,69.95
2023-05-18T00:27:10.375Z,70.77
2023-05-18T00:28:10.378Z,70.67
2023-05-18T00:29:10.335Z,71.31
2023-05-18T00:30:10.327Z,70.77
2023-05-18T00:31:10.336Z,70.80
2023-05-18T00:32:10.318Z,71.08
2023-05-18T00:33:10.364Z,70.80
2023-05-18T00:34:10.283Z,70.97
2023-05-18T00:35:10.325Z,71.01
2023-05-18T00:36:10.285Z,71.42
2023-05-18T00:37:10.246Z,71.62
2023-05-18T00:38:10.245Z,71.52
2023-05-18T00:39:10.236Z,71.42
2023-05-18T00:40:10.233Z,71.62
2023-05-18T00:41:10.233Z,72.06
2023-05-18T00:42:10.198Z,72.14
2023-05-18T00:43:10.192Z,72.38
2023-05-18T00:44:10.232Z,72.34
2023-05-18T00:45:10.157Z,72.14
2023-05-18T00:46:10.196Z,72.48
2023-05-18T00:47:10.137Z,72.68
2023-05-18T00:48:10.165Z,72.68
2023-05-18T00:49:10.142Z,72.68
2023-05-18T00:50:10.122Z,73.19
2023-05-18T00:51:10.135Z,73.50
2023-05-18T00:52:10.080Z,73.85
2023-05-18T00:53:10.086Z,73.23
2023-05-18T00:54:10.075Z,73.33
2023-05-18T00:55:10.047Z,73.33
2023-05-18T00:56:10.091Z,73.23
2023-05-18T00:57:10.041Z,73.02
2023-05-18T00:58:10.028Z,73.44
2023-05-18T00:59:10.013Z,73.85
2023-05-18T01:00:10.033Z,73.74
2023-05-18T01:01:10.057Z,73.95
2023-05-18T01:02:10.070Z,74.05
2023-05-18T01:03:10.249Z,74.60
2023-05-18T01:04:09.960Z,74.29
2023-05-18T01:05:09.933Z,74.50
2023-05-18T01:06:09.942Z,74.19
2023-05-18T01:07:09.928Z,74.05
2023-05-18T01:08:09.932Z,74.40
2023-05-18T01:09:09.899Z,74.50
2023-05-18T01:10:09.892Z,74.46
2023-05-18T01:11:09.949Z,74.19
2023-05-18T01:12:09.857Z,74.40
2023-05-18T01:13:09.861Z,74.60
2023-05-18T01:14:09.841Z,74.40
2023-05-18T01:15:09.824Z,75.04
2023-05-18T01:16:09.856Z,75.76
2023-05-18T01:17:09.863Z,75.83
2023-05-18T01:18:09.853Z,75.97
2023-05-18T01:19:09.851Z,75.87
2023-05-18T01:20:09.765Z,75.35
2023-05-18T01:21:09.770Z,75.56
2023-05-18T01:22:09.744Z,76.18
2023-05-18T01:23:09.745Z,75.87
2023-05-18T01:24:09.750Z,75.76
2023-05-18T01:25:09.720Z,75.97
2023-05-18T01:26:09.713Z,76.62
2023-05-18T01:27:09.683Z,76.59
2023-05-18T01:28:09.691Z,76.28
2023-05-18T01:29:09.801Z,75.97
2023-05-18T01:30:09.669Z,76.59
2023-05-18T01:31:09.677Z,76.07
2023-05-18T01:32:09.652Z,76.21
2023-05-18T01:33:09.750Z,76.31
2023-05-18T01:34:09.648Z,76.01
2023-05-18T01:35:09.601Z,76.01
2023-05-18T01:36:09.600Z,76.01
2023-05-18T01:37:09.584Z,76.01
2023-05-18T01:38:09.597Z,76.21
2023-05-18T01:39:09.556Z,76.42
2023-05-18T01:40:09.636Z,76.52
2023-05-18T01:41:09.543Z,76.93
2023-05-18T01:42:09.538Z,76.93
2023-05-18T01:43:09.504Z,76.52
2023-05-18T01:44:09.511Z,76.42
2023-05-18T01:45:09.493Z,77.65
2023-05-18T01:46:09.831Z,77.24
2023-05-18T01:47:09.469Z,77.65
2023-05-18T01:48:09.506Z,78.06
2023-05-18T01:49:09.438Z,77.65
2023-05-18T01:50:09.447Z,78.06
2023-05-18T01:51:09.626Z,77.89
2023-05-18T01:52:09.414Z,77.89
2023-05-18T01:53:09.408Z,77.79
2023-05-18T01:54:09.389Z,77.79
2023-05-18T01:55:09.392Z,78.17
2023-05-18T01:56:09.394Z,78.00
2023-05-18T01:57:09.589Z,78.00
2023-05-18T01:58:09.357Z,78.00
2023-05-18T01:59:09.331Z,78.20
2023-05-18T02:00:09.315Z,77.89
2023-05-18T02:01:09.327Z,78.37
2023-05-18T02:02:09.319Z,78.41
2023-05-18T02:03:09.381Z,78.61
2023-05-18T02:04:09.470Z,78.27
2023-05-18T02:05:09.278Z,78.51
2023-05-18T02:06:09.278Z,77.89
2023-05-18T02:07:09.253Z,78.20
2023-05-18T02:08:09.244Z,78.41
2023-05-18T02:09:09.227Z,78.00
2023-05-18T02:10:09.209Z,78.41
2023-05-18T02:11:09.220Z,78.00
2023-05-18T02:12:09.217Z,78.51
2023-05-18T02:13:09.205Z,78.20
2023-05-18T02:14:09.159Z,78.41
2023-05-18T02:15:09.158Z,78.41
2023-05-18T02:16:09.156Z,78.61
2023-05-18T02:17:09.147Z,78.24
2023-05-18T02:18:09.161Z,78.44
2023-05-18T02:19:09.203Z,78.41
2023-05-18T02:20:09.241Z,78.20
2023-05-18T02:21:09.076Z,78.55
2023-05-18T02:22:09.076Z,78.34
2023-05-18T02:23:09.062Z,78.55
2023-05-18T02:24:09.059Z,78.51
2023-05-18T02:25:09.048Z,78.34
2023-05-18T02:26:09.038Z,78.34
2023-05-18T02:27:09.002Z,78.14
2023-05-18T02:28:08.999Z,78.55
2023-05-18T02:29:08.995Z,79.16
2023-05-18T02:30:08.992Z,79.16
2023-05-18T02:31:09.021Z,78.86
2023-05-18T02:32:09.026Z,78.96
2023-05-18T02:33:08.994Z,78.96
2023-05-18T02:34:08.946Z,79.16
2023-05-18T02:35:08.930Z,79.06
2023-05-18T02:36:08.945Z,79.88
2023-05-18T02:37:08.892Z,79.79
2023-05-18T02:38:08.899Z,79.82
2023-05-18T02:39:08.905Z,79.41
2023-05-18T02:40:08.880Z,79.41
2023-05-18T02:41:08.855Z,79.20
2023-05-18T02:42:08.840Z,79.72
2023-05-18T02:43:08.845Z,80.33
2023-05-18T02:44:08.836Z,80.27
2023-05-18T02:45:08.841Z,79.93
2023-05-18T02:46:08.845Z,79.82
2023-05-18T02:47:08.788Z,79.93
2023-05-18T02:48:08.833Z,80.06
2023-05-18T02:49:08.760Z,79.96
2023-05-18T02:50:08.752Z,80.27
2023-05-18T02:51:08.764Z,79.96
2023-05-18T02:52:08.771Z,79.82
2023-05-18T02:53:08.716Z,80.27
2023-05-18T02:54:08.706Z,80.54
2023-05-18T02:55:08.700Z,80.58
2023-05-18T02:56:08.723Z,80.37
2023-05-18T02:57:08.684Z,80.79
2023-05-18T02:58:08.668Z,80.47
2023-05-18T02:59:09.044Z,80.68
2023-05-18T03:00:08.646Z,80.79
2023-05-18T03:01:08.702Z,80.47
2023-05-18T03:02:08.631Z,80.58
2023-05-18T03:03:08.802Z,80.51
2023-05-18T03:04:08.600Z,80.89
2023-05-18T03:05:08.612Z,81.23
2023-05-18T03:06:08.607Z,81.44
2023-05-18T03:07:08.562Z,80.79
2023-05-18T03:08:08.591Z,80.51
2023-05-18T03:09:08.554Z,80.99
2023-05-18T03:10:08.540Z,81.34
2023-05-18T03:11:08.536Z,81.23
2023-05-18T03:12:08.509Z,81.03
2023-05-18T03:13:08.508Z,81.34
2023-05-18T03:14:08.496Z,80.99
2023-05-18T03:15:08.480Z,81.13
2023-05-18T03:16:08.483Z,81.30
2023-05-18T03:17:08.612Z,81.34
2023-05-18T03:18:08.530Z,81.03
2023-05-18T03:19:08.454Z,80.79
2023-05-18T03:20:08.439Z,81.20
2023-05-18T03:21:08.434Z,81.85
2023-05-18T03:22:08.394Z,81.85
2023-05-18T03:23:08.379Z,81.34
2023-05-18T03:24:08.410Z,81.54
2023-05-18T03:25:08.376Z,81.44
2023-05-18T03:26:08.385Z,81.44
2023-05-18T03:27:08.338Z,81.23
2023-05-18T03:28:08.329Z,82.16
2023-05-18T03:29:08.328Z,82.68
2023-05-18T03:30:08.319Z,82.68
2023-05-18T03:31:08.349Z,82.51
2023-05-18T03:32:08.314Z,82.37
2023-05-18T03:33:08.328Z,82.26
2023-05-18T03:34:08.275Z,82.37
2023-05-18T03:35:08.261Z,82.51
2023-05-18T03:36:08.240Z,82.51
2023-05-18T03:37:08.245Z,82.40
2023-05-18T03:38:08.235Z,82.51
2023-05-18T03:39:08.203Z,82.51
2023-05-18T03:40:08.238Z,82.51
2023-05-18T03:41:08.179Z,82.40
2023-05-18T03:42:08.201Z,83.13
2023-05-18T03:43:08.161Z,82.51
2023-05-18T03:44:08.165Z,82.71
2023-05-18T03:45:08.150Z,82.51
2023-05-18T03:46:08.175Z,83.54
2023-05-18T03:47:08.128Z,83.33
2023-05-18T03:48:08.201Z,83.37
2023-05-18T03:49:08.102Z,83.23
2023-05-18T03:50:08.165Z,83.33
2023-05-18T03:51:08.081Z,83.03
2023-05-18T03:52:08.074Z,83.17
2023-05-18T03:53:08.057Z,83.03
2023-05-18T03:54:08.063Z,82.71
2023-05-18T03:55:08.041Z,83.37
2023-05-18T03:56:08.040Z,83.54
2023-05-18T03:57:08.011Z,83.37
2023-05-18T03:58:08.004Z,83.33
2023-05-18T03:59:08.014Z,82.86
2023-05-18T04:00:07.984Z,82.92
2023-05-18T04:01:07.983Z,82.92
2023-05-18T04:02:08.016Z,82.96
2023-05-18T04:03:08.058Z,83.54
2023-05-18T04:04:07.968Z,83.03
2023-05-18T04:05:07.946Z,82.96
2023-05-18T04:06:07.910Z,83.27
2023-05-18T04:07:07.902Z,82.92
2023-05-18T04:08:07.876Z,83.03
2023-05-18T04:09:07.868Z,83.44
2023-05-18T04:10:07.864Z,83.44
2023-05-18T04:11:07.902Z,83.64
2023-05-18T04:12:07.885Z,84.09
2023-05-18T04:13:07.823Z,83.48
2023-05-18T04:14:07.820Z,83.54
2023-05-18T04:15:07.823Z,83.85
2023-05-18T04:16:07.841Z,84.30
2023-05-18T04:17:07.793Z,84.30
2023-05-18T04:18:07.780Z,84.06
2023-05-18T04:19:08.453Z,84.06
2023-05-18T04:20:07.801Z,84.06
2023-05-18T04:21:07.750Z,84.67
2023-05-18T04:22:07.741Z,84.36
2023-05-18T04:23:07.725Z,83.95
2023-05-18T04:24:07.695Z,83.85
2023-05-18T04:25:07.709Z,84.06
2023-05-18T04:26:07.686Z,83.81
2023-05-18T04:27:07.683Z,84.33
2023-05-18T04:28:07.673Z,84.16
2023-05-18T04:29:07.687Z,83.91
2023-05-18T04:30:07.626Z,84.22
2023-05-18T04:31:07.637Z,84.01
2023-05-18T04:32:07.785Z,84.22
2023-05-18T04:33:07.697Z,84.01
2023-05-18T04:34:07.597Z,83.91
2023-05-18T04:35:07.578Z,84.12
2023-05-18T04:36:07.573Z,84.19
2023-05-18T04:37:07.553Z,83.98
2023-05-18T04:38:07.567Z,83.77
2023-05-18T04:39:08.182Z,83.98
2023-05-18T04:40:07.528Z,83.98
2023-05-18T04:41:07.520Z,84.19
2023-05-18T04:42:07.496Z,83.98
2023-05-18T04:43:07.502Z,83.73
2023-05-18T04:44:07.533Z,84.25
2023-05-18T04:45:07.493Z,83.32
2023-05-18T04:46:07.753Z,82.81
2023-05-18T04:47:07.456Z,83.22
2023-05-18T04:48:07.463Z,83.42
2023-05-18T04:49:07.417Z,82.46
2023-05-18T04:50:07.419Z,82.67
2023-05-18T04:51:07.405Z,82.67
2023-05-18T04:52:07.424Z,82.56
2023-05-18T04:53:07.387Z,82.67
2023-05-18T04:54:07.357Z,82.63
2023-05-18T04:55:07.350Z,82.15
2023-05-18T04:56:07.346Z,82.21
2023-05-18T04:57:07.343Z,82.42
2023-05-18T04:58:07.329Z,81.29
2023-05-18T04:59:07.318Z,81.56
2023-05-18T05:00:07.327Z,80.53
2023-05-18T05:01:07.330Z,79.77
2023-05-18T05:02:07.390Z,79.36
2023-05-18T05:03:07.355Z,79.67
2023-05-18T05:04:07.255Z,78.71
2023-05-18T05:05:07.235Z,78.16
2023-05-18T05:06:07.221Z,78.36
2023-05-18T05:07:07.246Z,78.16
2023-05-18T05:08:07.194Z,77.65
2023-05-18T05:09:07.189Z,77.75
2023-05-18T05:10:07.172Z,76.93
2023-05-18T05:11:07.168Z,77.95
2023-05-18T05:12:07.177Z,77.71
2023-05-18T05:13:07.142Z,78.02
2023-05-18T05:14:07.161Z,78.09
2023-05-18T05:15:07.126Z,77.40
2023-05-18T05:16:07.153Z,78.19
2023-05-18T05:17:07.114Z,77.58
2023-05-18T05:18:07.117Z,76.00
2023-05-18T05:19:07.109Z,74.87
2023-05-18T05:20:07.079Z,75.59
2023-05-18T05:21:07.063Z,73.85
2023-05-18T05:22:07.036Z,73.44
2023-05-18T05:23:07.163Z,73.33
2023-05-18T05:24:07.028Z,73.10
2023-05-18T05:25:07.020Z,72.48
2023-05-18T05:26:07.009Z,72.78
2023-05-18T05:27:06.998Z,72.65
2023-05-18T05:28:06.986Z,72.14
2023-05-18T05:29:06.974Z,71.73
2023-05-18T05:30:06.946Z,70.81
2023-05-18T05:31:06.988Z,70.50
2023-05-18T05:32:06.948Z,70.77
2023-05-18T05:33:06.969Z,69.92
2023-05-18T05:34:06.896Z,69.10
2023-05-18T05:35:06.895Z,67.67
2023-05-18T05:36:06.884Z,67.74
2023-05-18T05:37:06.872Z,68.05
2023-05-18T05:38:06.869Z,67.50
2023-05-18T05:39:06.854Z,67.71
2023-05-18T05:40:06.865Z,68.12
2023-05-18T05:41:06.839Z,67.88
2023-05-18T05:42:06.812Z,68.05
2023-05-18T05:43:06.836Z,67.54
2023-05-18T05:44:06.813Z,66.80
2023-05-18T05:45:06.813Z,66.49
2023-05-18T05:46:06.780Z,66.42
2023-05-18T05:47:06.877Z,66.63
2023-05-18T05:48:06.864Z,67.21
2023-05-18T05:49:06.753Z,67.11
2023-05-18T05:50:06.760Z,67.08
2023-05-18T05:51:06.732Z,67.15
2023-05-18T05:52:06.702Z,66.64
2023-05-18T05:53:06.706Z,66.10
2023-05-18T05:54:07.901Z,65.69
2023-05-18T05:55:06.686Z,65.16
2023-05-18T05:56:06.680Z,64.38
2023-05-18T05:57:06.665Z,62.24
2023-05-18T05:58:06.645Z,62.21
2023-05-18T05:59:06.643Z,60.18
2023-05-18T06:00:06.623Z,59.37
2023-05-18T06:01:06.618Z,59.91
2023-05-18T06:02:06.681Z,60.61
2023-05-18T06:03:06.740Z,61.13
2023-05-18T06:04:06.713Z,59.47
2023-05-18T06:05:06.556Z,58.86
2023-05-18T06:06:06.546Z,60.08
2023-05-18T06:07:06.572Z,58.63
2023-05-18T06:08:06.537Z,58.25
2023-05-18T06:09:06.532Z,58.83
2023-05-18T06:10:06.497Z,59.64
2023-05-18T06:11:06.575Z,58.09
2023-05-18T06:12:06.490Z,60.33
2023-05-18T06:13:06.502Z,59.82
2023-05-18T06:14:06.484Z,59.28
2023-05-18T06:15:06.469Z,58.78
2023-05-18T06:16:06.477Z,58.37
2023-05-18T06:17:06.468Z,58.45
2023-05-18T06:18:06.499Z,58.04
2023-05-18T06:19:06.464Z,57.91
2023-05-18T06:20:06.425Z,57.58
2023-05-18T06:21:06.392Z,58.18
2023-05-18T06:22:06.391Z,57.68
2023-05-18T06:23:06.364Z,55.45
2023-05-18T06:24:06.335Z,56.26
2023-05-18T06:25:06.364Z,57.68
2023-05-18T06:26:06.322Z,58.59
2023-05-18T06:27:06.339Z,57.98
2023-05-18T06:28:06.313Z,57.55
2023-05-18T06:29:06.292Z,57.24
2023-05-18T06:30:06.274Z,56.64
2023-05-18T06:31:06.305Z,55.63
2023-05-18T06:32:06.334Z,54.41
2023-05-18T06:33:06.314Z,54.82
2023-05-18T06:34:06.248Z,54.82
2023-05-18T06:35:06.246Z,54.71
2023-05-18T06:36:06.266Z,54.41
2023-05-18T06:37:06.223Z,54.38
2023-05-18T06:38:06.185Z,53.45
2023-05-18T06:39:06.188Z,54.49
2023-05-18T06:40:06.183Z,53.96
2023-05-18T06:41:06.157Z,53.63
2023-05-18T06:42:06.169Z,54.13
2023-05-18T06:43:06.151Z,52.92
2023-05-18T06:44:06.151Z,53.19
2023-05-18T06:45:06.112Z,52.28
2023-05-18T06:46:06.208Z,52.69
2023-05-18T06:47:06.101Z,54.51
2023-05-18T06:48:06.128Z,53.07
2023-05-18T06:49:06.090Z,50.87
2023-05-18T06:50:06.051Z,51.15
2023-05-18T06:51:06.059Z,50.42
2023-05-18T06:52:06.114Z,48.90
2023-05-18T06:53:06.037Z,51.17
2023-05-18T06:54:06.006Z,50.06
2023-05-18T06:55:06.014Z,50.29
2023-05-18T06:56:06.008Z,51.53
2023-05-18T06:57:05.977Z,53.12
2023-05-18T06:58:06.000Z,52.51
2023-05-18T06:59:05.988Z,52.97
2023-05-18T07:00:05.941Z,51.45
2023-05-18T07:01:05.984Z,51.86
2023-05-18T07:02:05.972Z,52.74
2023-05-18T07:03:06.110Z,51.07
2023-05-18T07:04:05.983Z,50.52
2023-05-18T07:05:05.890Z,48.21
2023-05-18T07:06:05.875Z,50.55
2023-05-18T07:07:05.890Z,50.55
2023-05-18T07:08:05.983Z,48.53
2023-05-18T07:09:05.859Z,51.28
2023-05-18T07:10:05.841Z,50.55
2023-05-18T07:11:05.874Z,50.42
2023-05-18T07:12:05.823Z,50.52
2023-05-18T07:13:05.810Z,49.69
2023-05-18T07:14:05.800Z,49.24
2023-05-18T07:15:05.819Z,50.65
2023-05-18T07:16:05.790Z,47.59
2023-05-18T07:17:05.753Z,46.96
2023-05-18T07:18:05.840Z,46.64
2023-05-18T07:19:05.769Z,44.04
2023-05-18T07:20:05.750Z,44.61
2023-05-18T07:21:05.719Z,48.69
2023-05-18T07:22:05.707Z,48.00
2023-05-18T07:23:05.692Z,49.92
2023-05-18T07:24:05.751Z,49.62
2023-05-18T07:25:05.674Z,48.69
2023-05-18T07:26:05.670Z,48.56
2023-05-18T07:27:05.665Z,48.92
2023-05-18T07:28:05.645Z,47.08
2023-05-18T07:29:05.634Z,47.19
2023-05-18T07:30:05.607Z,47.16
2023-05-18T07:31:05.662Z,46.44
2023-05-18T07:32:05.595Z,48.14
2023-05-18T07:33:05.625Z,46.64
2023-05-18T07:34:05.576Z,46.72
2023-05-18T07:35:05.555Z,46.41
2023-05-18T07:36:05.565Z,44.20
2023-05-18T07:37:05.546Z,45.33
2023-05-18T07:38:05.516Z,45.61
2023-05-18T07:39:05.548Z,45.10
2023-05-18T07:40:05.568Z,45.61
2023-05-18T07:41:05.491Z,44.18
2023-05-18T07:42:05.485Z,44.75
2023-05-18T07:43:05.461Z,44.89
2023-05-18T07:44:05.472Z,47.05
2023-05-18T07:45:05.457Z,48.18
2023-05-18T07:46:05.439Z,48.86
2023-05-18T07:47:05.494Z,48.44
2023-05-18T07:48:05.441Z,48.41
2023-05-18T07:49:05.396Z,49.42
2023-05-18T07:50:05.397Z,48.90
2023-05-18T07:51:05.381Z,47.94
2023-05-18T07:52:05.366Z,45.55
2023-05-18T07:53:05.418Z,48.09
2023-05-18T07:54:05.387Z,47.04
2023-05-18T07:55:05.345Z,46.61
2023-05-18T07:56:05.381Z,46.80
2023-05-18T07:57:05.324Z,45.95
2023-05-18T07:58:05.329Z,44.42
2023-05-18T07:59:05.286Z,45.22
2023-05-18T08:00:05.274Z,45.20
2023-05-18T08:01:05.289Z,44.72
2023-05-18T08:02:05.349Z,43.90
2023-05-18T08:03:05.342Z,44.20
2023-05-18T08:04:05.396Z,44.74
2023-05-18T08:05:05.224Z,44.22
2023-05-18T08:06:05.228Z,44.12
2023-05-18T08:07:05.210Z,44.42
2023-05-18T08:08:06.815Z,43.72
2023-05-18T08:09:05.176Z,44.10
2023-05-18T08:10:05.184Z,44.70
2023-05-18T08:11:05.153Z,44.28
2023-05-18T08:12:05.183Z,42.76
2023-05-18T08:13:05.148Z,44.04
2023-05-18T08:14:05.135Z,42.93
2023-05-18T08:15:05.111Z,43.41
2023-05-18T08:16:11.830Z,42.10
2023-05-18T08:17:06.221Z,40.37
2023-05-18T08:18:05.175Z,39.91
2023-05-18T08:19:05.088Z,41.93
2023-05-18T08:20:05.076Z,42.63
2023-05-18T08:21:05.042Z,42.71
2023-05-18T08:22:05.045Z,42.41
2023-05-18T08:23:05.019Z,41.30
2023-05-18T08:24:05.024Z,41.08
2023-05-18T08:25:05.004Z,41.27
2023-05-18T08:26:04.993Z,41.99
2023-05-18T08:27:04.974Z,41.11
2023-05-18T08:28:05.009Z,41.55
2023-05-18T08:29:04.954Z,42.10
2023-05-18T08:30:04.965Z,42.33
2023-05-18T08:31:04.932Z,43.48
2023-05-18T08:32:05.013Z,45.09
2023-05-18T08:33:04.972Z,46.69
2023-05-18T08:34:04.917Z,45.62
2023-05-18T08:35:04.885Z,44.20
2023-05-18T08:36:04.893Z,44.78
2023-05-18T08:37:04.884Z,43.85
2023-05-18T08:38:05.821Z,44.34
2023-05-18T08:39:04.854Z,42.69
2023-05-18T08:40:04.853Z,40.75
2023-05-18T08:41:04.834Z,41.05
2023-05-18T08:42:04.815Z,39.48
2023-05-18T08:43:04.843Z,41.05
2023-05-18T08:44:04.847Z,42.03
2023-05-18T08:45:04.786Z,43.96
2023-05-18T08:46:04.774Z,43.38
2023-05-18T08:47:04.775Z,44.10
2023-05-18T08:48:04.872Z,45.31
2023-05-18T08:49:04.905Z,44.38
2023-05-18T08:50:04.747Z,44.04
2023-05-18T08:51:04.712Z,44.14
2023-05-18T08:52:04.720Z,42.80
2023-05-18T08:53:04.697Z,42.60
2023-05-18T08:54:04.714Z,42.07
2023-05-18T08:55:04.723Z,43.33
2023-05-18T08:56:04.663Z,41.82
2023-05-18T08:57:04.672Z,40.50
2023-05-18T08:58:04.695Z,39.61
2023-05-18T08:59:04.666Z,41.41
2023-05-18T09:00:04.656Z,40.89
2023-05-18T09:01:04.702Z,41.02
2023-05-18T09:02:04.648Z,40.11
2023-05-18T09:03:04.672Z,40.85
2023-05-18T09:04:04.610Z,40.97
2023-05-18T09:05:04.637Z,41.01
2023-05-18T09:06:04.566Z,41.96
2023-05-18T09:07:04.562Z,42.66
2023-05-18T09:08:04.549Z,43.38
2023-05-18T09:09:04.544Z,43.08
2023-05-18T09:10:04.534Z,42.97
2023-05-18T09:11:04.497Z,43.52
2023-05-18T09:12:04.508Z,43.18
2023-05-18T09:13:04.496Z,43.04
2023-05-18T09:14:04.498Z,42.74
2023-05-18T09:15:04.466Z,40.69
2023-05-18T09:16:04.550Z,41.16
2023-05-18T09:17:04.445Z,41.41
2023-05-18T09:18:04.475Z,41.19
2023-05-18T09:19:04.474Z,41.89
2023-05-18T09:20:04.406Z,41.75
2023-05-18T09:21:04.391Z,41.03
2023-05-18T09:22:04.402Z,39.62
2023-05-18T09:23:04.386Z,39.70
2023-05-18T09:24:04.403Z,39.50
2023-05-18T09:25:04.350Z,38.33
2023-05-18T09:26:04.358Z,38.23
2023-05-18T09:27:04.330Z,38.63
2023-05-18T09:28:04.347Z,36.95
2023-05-18T09:29:04.319Z,37.47
2023-05-18T09:30:04.336Z,37.90
2023-05-18T09:31:04.283Z,39.78
2023-05-18T09:32:04.362Z,40.01
2023-05-18T09:33:04.374Z,41.15
2023-05-18T09:34:04.296Z,41.66
2023-05-18T09:35:04.277Z,43.05
2023-05-18T09:36:04.238Z,42.76
2023-05-18T09:37:04.225Z,41.31
2023-05-18T09:38:04.230Z,40.31
2023-05-18T09:39:04.211Z,41.24
2023-05-18T09:40:04.204Z,41.47
2023-05-18T09:41:04.208Z,40.71
2023-05-18T09:42:04.189Z,42.35
2023-05-18T09:43:04.156Z,43.78
2023-05-18T09:44:04.162Z,44.02
2023-05-18T09:45:04.155Z,43.95
2023-05-18T09:46:04.151Z,44.32
2023-05-18T09:47:04.229Z,43.60
2023-05-18T09:48:04.179Z,43.80
2023-05-18T09:49:04.096Z,44.08
2023-05-18T09:50:04.088Z,45.77
2023-05-18T09:51:04.086Z,46.73
2023-05-18T09:52:04.083Z,43.58
2023-05-18T09:53:04.068Z,41.61
2023-05-18T09:54:04.047Z,39.98
2023-05-18T09:55:04.041Z,39.76
2023-05-18T09:56:04.029Z,39.76
2023-05-18T09:57:10.845Z,39.58
2023-05-18T09:58:05.013Z,40.50
2023-05-18T09:59:03.992Z,40.01
2023-05-18T10:00:03.981Z,41.24
2023-05-18T10:01:04.025Z,41.35
2023-05-18T10:02:03.973Z,41.57
2023-05-18T10:03:04.006Z,40.97
2023-05-18T10:04:04.183Z,41.89
2023-05-18T10:05:03.949Z,43.32
2023-05-18T10:06:03.929Z,42.44
2023-05-18T10:07:03.904Z,41.71
2023-05-18T10:08:03.913Z,41.89
2023-05-18T10:09:03.878Z,41.67
2023-05-18T10:10:03.930Z,41.15
2023-05-18T10:11:03.859Z,41.11
2023-05-18T10:12:03.863Z,40.99
2023-05-18T10:13:03.852Z,39.50
2023-05-18T10:14:03.833Z,40.50
2023-05-18T10:15:03.833Z,40.97
2023-05-18T10:16:03.824Z,39.59
2023-05-18T10:17:14.968Z,40.13
2023-05-18T10:18:04.834Z,40.83
2023-05-18T10:19:03.818Z,41.03
2023-05-18T10:20:03.798Z,40.11
2023-05-18T10:21:03.797Z,40.88
2023-05-18T10:22:03.757Z,38.57
2023-05-18T10:23:03.740Z,39.73
2023-05-18T10:24:03.733Z,40.87
2023-05-18T10:25:03.712Z,40.89
2023-05-18T10:26:03.733Z,42.72
2023-05-18T10:27:03.699Z,43.80
2023-05-18T10:28:03.684Z,43.08
2023-05-18T10:29:03.676Z,42.93
2023-05-18T10:30:03.673Z,42.41
2023-05-18T10:31:03.678Z,41.47
2023-05-18T10:32:06.185Z,41.53
2023-05-18T10:33:07.025Z,39.92
2023-05-18T10:34:04.626Z,40.00
2023-05-18T10:35:03.601Z,40.78
2023-05-18T10:36:03.650Z,41.16
2023-05-18T10:37:03.594Z,39.74
2023-05-18T10:38:03.573Z,38.33
2023-05-18T10:39:03.557Z,37.93
2023-05-18T10:40:03.621Z,37.43
2023-05-18T10:41:03.536Z,37.13
2023-05-18T10:42:03.530Z,37.85
2023-05-18T10:43:03.582Z,38.05
2023-05-18T10:44:03.523Z,39.25
2023-05-18T10:45:03.506Z,38.45
2023-05-18T10:46:03.585Z,37.17
2023-05-18T10:47:03.535Z,37.59
2023-05-18T10:48:03.582Z,38.31
2023-05-18T10:49:03.476Z,39.40
2023-05-18T10:50:03.449Z,39.40
2023-05-18T10:51:03.494Z,39.48
2023-05-18T10:52:03.445Z,39.48
2023-05-18T10:53:03.413Z,39.25
2023-05-18T10:54:03.411Z,39.84
2023-05-18T10:55:03.388Z,37.83
2023-05-18T10:56:03.396Z,38.82
2023-05-18T10:57:03.382Z,38.31
2023-05-18T10:58:03.362Z,38.09
2023-05-18T10:59:03.342Z,38.20
2023-05-18T11:00:03.356Z,38.59
2023-05-18T11:01:03.329Z,36.90
2023-05-18T11:02:03.433Z,38.29
2023-05-18T11:03:03.341Z,37.12
2023-05-18T11:04:03.311Z,37.21
2023-05-18T11:05:03.380Z,37.43
2023-05-18T11:06:03.283Z,36.55
2023-05-18T11:07:03.295Z,38.15
2023-05-18T11:08:03.310Z,38.15
2023-05-18T11:09:03.270Z,39.54
2023-05-18T11:10:03.276Z,39.16
2023-05-18T11:11:03.259Z,38.37
2023-05-18T11:12:03.224Z,38.37
2023-05-18T11:13:03.215Z,38.78
2023-05-18T11:14:03.207Z,38.89
2023-05-18T11:15:03.196Z,38.31
2023-05-18T11:16:03.200Z,37.30
2023-05-18T11:17:03.161Z,37.34
2023-05-18T11:18:03.186Z,39.76
2023-05-18T11:19:03.192Z,39.98
2023-05-18T11:20:03.132Z,40.67
2023-05-18T11:21:03.131Z,40.88
2023-05-18T11:22:03.102Z,39.78
2023-05-18T11:23:03.107Z,39.37
2023-05-18T11:24:03.100Z,41.08
2023-05-18T11:25:03.063Z,40.67
2023-05-18T11:26:03.088Z,40.56
2023-05-18T11:27:03.067Z,39.67
2023-05-18T11:28:03.050Z,39.72
2023-05-18T11:29:03.021Z,39.89
2023-05-18T11:30:14.844Z,40.91
2023-05-18T11:31:04.018Z,39.91
2023-05-18T11:32:04.814Z,39.89
2023-05-18T11:33:03.073Z,40.22
2023-05-18T11:34:02.985Z,39.61
2023-05-18T11:35:02.988Z,40.41
2023-05-18T11:36:03.000Z,41.21
2023-05-18T11:37:02.948Z,39.81
2023-05-18T11:38:02.940Z,40.03
2023-05-18T11:39:02.933Z,39.73
2023-05-18T11:40:05.744Z,39.33
2023-05-18T11:41:03.914Z,38.53
2023-05-18T11:42:02.896Z,40.95
2023-05-18T11:43:02.877Z,41.33
2023-05-18T11:44:02.864Z,41.13
2023-05-18T11:45:02.853Z,41.61
2023-05-18T11:46:02.877Z,41.49
2023-05-18T11:47:02.844Z,43.09
2023-05-18T11:48:02.912Z,41.25
2023-05-18T11:49:02.866Z,40.95
2023-05-18T11:50:02.810Z,41.53
2023-05-18T11:51:02.799Z,40.64
2023-05-18T11:52:02.773Z,39.90
2023-05-18T11:53:02.759Z,38.31
2023-05-18T11:54:02.774Z,38.22
2023-05-18T11:55:02.747Z,38.82
2023-05-18T11:56:02.787Z,39.52
2023-05-18T11:57:02.732Z,38.04
2023-05-18T11:58:02.717Z,40.62
2023-05-18T11:59:02.717Z,40.22
2023-05-18T12:00:02.702Z,39.92
2023-05-18T12:01:02.690Z,38.92
2023-05-18T12:02:02.770Z,39.14
2023-05-18T12:03:02.812Z,38.84
2023-05-18T12:04:02.791Z,39.43
2023-05-18T12:05:02.633Z,39.32
2023-05-18T12:06:02.634Z,39.42
2023-05-18T12:07:02.605Z,38.32
2023-05-18T12:08:02.603Z,38.04
2023-05-18T12:09:03.753Z,39.26
2023-05-18T12:10:02.575Z,39.76
2023-05-18T12:11:02.581Z,39.87
2023-05-18T12:12:02.572Z,40.00
2023-05-18T12:13:02.541Z,39.87
2023-05-18T12:14:02.521Z,39.61
2023-05-18T12:15:02.533Z,41.24
2023-05-18T12:16:02.517Z,40.22
2023-05-18T12:17:02.548Z,40.13
2023-05-18T12:18:02.636Z,39.83
2023-05-18T12:19:02.549Z,40.73
2023-05-18T12:20:02.466Z,41.31
2023-05-18T12:21:02.454Z,38.71
2023-05-18T12:22:02.483Z,38.83
2023-05-18T12:23:02.428Z,39.45
2023-05-18T12:24:02.418Z,40.75
2023-05-18T12:25:02.410Z,40.45
2023-05-18T12:26:02.404Z,43.35
2023-05-18T12:27:02.391Z,41.41
2023-05-18T12:28:02.402Z,40.41
2023-05-18T12:29:02.361Z,42.29
2023-05-18T12:30:02.367Z,41.08
2023-05-18T12:31:02.439Z,40.86
2023-05-18T12:32:02.342Z,40.53
2023-05-18T12:33:02.356Z,39.64
2023-05-18T12:34:02.332Z,41.11
2023-05-18T12:35:02.291Z,39.32
2023-05-18T12:36:02.295Z,38.24
2023-05-18T12:37:02.298Z,39.62
2023-05-18T12:38:02.952Z,38.82
2023-05-18T12:39:02.264Z,38.92
2023-05-18T12:40:02.247Z,39.70
2023-05-18T12:41:02.241Z,38.02
2023-05-18T12:42:02.263Z,38.72
2023-05-18T12:43:02.215Z,38.12
2023-05-18T12:44:02.283Z,39.60
2023-05-18T12:45:03.129Z,39.30
2023-05-18T12:46:02.219Z,39.20
2023-05-18T12:47:02.190Z,40.48
2023-05-18T12:48:02.239Z,39.08
2023-05-18T12:49:02.144Z,39.76
2023-05-18T12:50:02.135Z,38.95
2023-05-18T12:51:02.131Z,39.04
2023-05-18T12:52:02.146Z,38.45